KAOH/AOH METAR and TAF weather

Enter ICAO airport designator
Station Type Date Time Source
KAOH METAR 2019/10/16 18:53 UTC NOAA

KAOH 161853Z AUTO 28017G28KT OVC023 09/04 A2977 RMK AO2 PK WND 27034/1829 SLP079 T00940044 $


Station Type Date Time Source
KAOH Decoded METAR 2019/10/16 18:53 UTC NOAA

LIMA ALLEN COUNTY AIRPORT, OH, United States (KAOH) 40-42N 84-01W 296M
Oct 16, 2019 - 02:53 PM EDT / 2019.10.16 1853 UTC
Wind: from the W (280 degrees) at 20 MPH (17 KT) gusting to 32 MPH (28 KT):0
Sky conditions: overcast
Temperature: 48.9 F (9.4 C)
Dew Point: 39.9 F (4.4 C)
Relative Humidity: 70%
Pressure (altimeter): 29.77 in. Hg (1008 hPa)
ob: KAOH 161853Z AUTO 28017G28KT OVC023 09/04 A2977 RMK AO2 PK WND 27034/1829 SLP079 T00940044
cycle: 19

Station Type Date Time Source
KAOH TAF UTC NOAA

Error!

Example: see airport list